Time;durP1;ratioP1;P1;durP2;ratioP2;P2;SDS_P1;SDS_P2;PMS_P1;PMS_P2;Temp;Humidity;BMP_temperature;BMP_pressure;BME280_temperature;BME280_humidity;BME280_pressure;Samples;Min_cycle;Max_cycle;Signal;HPM_P1;HPM_P2
2022/02/14 00:01:23;;;;;;;;;;;;;;;31.11;17.02;101850.69;5077372;28;828;-40
2022/02/14 00:03:49;;;;;;;;;;;;;;;31.26;16.85;101847.16;5077113;28;835;-37
2022/02/14 00:06:14;;;;;;;;;;;;;;;31.27;16.41;101846.97;5073050;28;873;-40
2022/02/14 00:08:39;;;;;;;;;;;;;;;31.31;16.88;101852.03;5077532;28;837;-40
2022/02/14 00:11:05;;;;;;;;;;;;;;;31.30;16.49;101845.72;5077097;28;871;-40
2022/02/14 00:13:30;;;;;;;;;;;;;;;30.84;16.77;101841.22;5074976;28;835;-40
2022/02/14 00:15:56;;;;;;;;;;;;;;;30.42;17.44;101841.50;5076272;28;1967;-41
2022/02/14 00:18:21;;;;;;;;;;;;;;;30.74;17.14;101833.28;5077037;28;891;-41
2022/02/14 00:20:46;;;;;;;;;;;;;;;30.68;17.15;101838.41;5077752;28;1081;-41
2022/02/14 00:23:12;;;;;;;;;;;;;;;30.56;17.30;101831.72;5071076;28;1691;-41
2022/02/14 00:25:37;;;;;;;;;;;;;;;30.47;17.54;101833.66;5076485;28;861;-40
2022/02/14 00:28:03;;;;;;;;;;;;;;;30.50;17.50;101833.28;5076905;28;914;-41
2022/02/14 00:30:29;;;;;;;;;;;;;;;30.62;17.59;101827.44;5072175;28;1520;-42
2022/02/14 00:32:54;;;;;;;;;;;;;;;30.74;17.39;101822.44;5076725;28;1171;-40
2022/02/14 00:35:19;;;;;;;;;;;;;;;30.84;17.37;101830.34;5076534;28;1906;-41
2022/02/14 00:37:45;;;;;;;;;;;;;;;30.83;17.27;101817.81;5076758;28;856;-41
2022/02/14 00:40:10;;;;;;;;;;;;;;;30.95;16.97;101820.94;5076673;28;844;-42
2022/02/14 00:42:35;;;;;;;;;;;;;;;31.02;17.16;101817.28;5075874;28;796;-43
2022/02/14 00:45:01;;;;;;;;;;;;;;;31.07;17.15;101819.47;5076643;28;801;-41
2022/02/14 00:47:26;;;;;;;;;;;;;;;31.11;16.81;101814.50;5077027;28;1070;-42
2022/02/14 00:49:52;;;;;;;;;;;;;;;31.19;16.96;101813.56;5077143;28;766;-42
2022/02/14 00:52:17;;;;;;;;;;;;;;;31.25;16.95;101819.13;5076813;28;1042;-42
2022/02/14 00:54:43;;;;;;;;;;;;;;;30.74;17.06;101815.13;5076283;28;1901;-40
2022/02/14 00:57:08;;;;;;;;;;;;;;;30.42;17.29;101815.19;5072705;28;953;-38
2022/02/14 00:59:34;;;;;;;;;;;;;;;30.51;17.48;101809.72;5072915;28;959;-39
2022/02/14 01:01:59;;;;;;;;;;;;;;;30.56;17.43;101807.28;5076661;28;836;-39
2022/02/14 01:04:25;;;;;;;;;;;;;;;30.55;17.54;101809.16;5076328;28;925;-40
2022/02/14 01:06:50;;;;;;;;;;;;;;;30.54;17.51;101806.63;5076460;28;873;-40
2022/02/14 01:09:15;;;;;;;;;;;;;;;30.61;17.28;101802.16;5075459;28;836;-40
2022/02/14 01:11:41;;;;;;;;;;;;;;;30.66;17.21;101798.91;5076680;28;932;-41
2022/02/14 01:14:06;;;;;;;;;;;;;;;30.77;17.27;101792.19;5074207;28;1955;-40
2022/02/14 01:16:31;;;;;;;;;;;;;;;30.83;17.19;101794.19;5069239;28;1555;-40
2022/02/14 01:18:57;;;;;;;;;;;;;;;30.81;17.11;101781.84;5076723;28;809;-41
2022/02/14 01:21:22;;;;;;;;;;;;;;;30.88;17.00;101778.19;5075446;28;936;-41
2022/02/14 01:23:47;;;;;;;;;;;;;;;30.99;16.98;101776.06;5076557;28;782;-40
2022/02/14 01:26:13;;;;;;;;;;;;;;;31.09;16.86;101782.06;5076082;28;778;-40
2022/02/14 01:28:38;;;;;;;;;;;;;;;31.12;16.96;101778.13;5075653;28;936;-41
2022/02/14 01:31:03;;;;;;;;;;;;;;;31.10;16.93;101783.75;5076127;28;845;-42
2022/02/14 01:33:29;;;;;;;;;;;;;;;31.15;16.81;101781.31;5074927;28;980;-42
2022/02/14 01:35:54;;;;;;;;;;;;;;;30.93;17.03;101783.06;5075720;28;1960;-41
2022/02/14 01:38:19;;;;;;;;;;;;;;;30.43;17.48;101776.16;5076178;28;896;-41
2022/02/14 01:40:44;;;;;;;;;;;;;;;30.38;17.55;101778.56;5076130;28;814;-42
2022/02/14 01:43:15;;;;;;;;;;;;;;;30.63;17.33;101772.13;5075427;28;882;-39
2022/02/14 01:45:40;;;;;;;;;;;;;;;30.56;17.55;101769.28;5075480;28;860;-42
2022/02/14 01:48:06;;;;;;;;;;;;;;;30.50;17.58;101770.00;5072659;28;1058;-40
2022/02/14 01:50:31;;;;;;;;;;;;;;;30.48;17.64;101769.34;5075717;28;794;-42
2022/02/14 01:52:56;;;;;;;;;;;;;;;30.54;17.64;101760.47;5075887;28;893;-40
2022/02/14 01:55:22;;;;;;;;;;;;;;;30.62;17.59;101767.69;5073902;28;1894;-41
2022/02/14 01:57:48;;;;;;;;;;;;;;;30.64;17.42;101757.50;5075118;28;865;-41
2022/02/14 02:00:14;;;;;;;;;;;;;;;30.70;17.29;101754.03;5075644;28;905;-40
2022/02/14 02:02:40;;;;;;;;;;;;;;;30.74;17.46;101751.81;5073902;28;1464;-41
2022/02/14 02:05:06;;;;;;;;;;;;;;;30.85;17.37;101747.81;5075929;28;726;-41
2022/02/14 02:07:31;;;;;;;;;;;;;;;30.85;17.33;101748.69;5075622;28;802;-40
2022/02/14 02:09:56;;;;;;;;;;;;;;;30.93;17.12;101745.03;5075618;28;757;-42
2022/02/14 02:12:25;;;;;;;;;;;;;;;30.94;17.21;101738.59;5072328;28;932;-40
2022/02/14 02:14:51;;;;;;;;;;;;;;;31.04;16.96;101746.47;5075581;28;1893;-42
2022/02/14 02:17:17;;;;;;;;;;;;;;;31.00;17.10;101742.41;5074734;28;822;-39
2022/02/14 02:19:42;;;;;;;;;;;;;;;31.08;17.03;101747.75;5068996;28;857;-43
2022/02/14 02:22:07;;;;;;;;;;;;;;;30.98;17.17;101745.31;5076129;28;805;-40
2022/02/14 02:24:33;;;;;;;;;;;;;;;30.54;17.35;101747.75;5074979;28;952;-40
2022/02/14 02:27:00;;;;;;;;;;;;;;;30.31;17.79;101743.16;5075374;28;900;-40
2022/02/14 02:29:25;;;;;;;;;;;;;;;30.58;17.50;101750.09;5070310;28;839;-40
2022/02/14 02:31:50;;;;;;;;;;;;;;;30.44;17.78;101741.72;5075141;28;1179;-42
2022/02/14 02:34:16;;;;;;;;;;;;;;;30.43;17.73;101738.16;5075442;28;1956;-42
2022/02/14 02:36:59;;;;;;;;;;;;;;;30.35;17.79;101740.91;5073698;28;787;-40
2022/02/14 02:39:25;;;;;;;;;;;;;;;30.52;17.54;101744.34;5072308;28;869;-40
2022/02/14 02:41:50;;;;;;;;;;;;;;;30.58;17.54;101734.63;5079693;28;765;-40
2022/02/14 02:44:15;;;;;;;;;;;;;;;30.68;17.56;101735.22;5079360;28;766;-41
2022/02/14 02:46:41;;;;;;;;;;;;;;;30.63;17.52;101734.91;5078861;28;1199;-40
2022/02/14 02:49:09;;;;;;;;;;;;;;;30.75;17.31;101732.63;5079524;28;876;-40
2022/02/14 02:51:41;;;;;;;;;;;;;;;30.74;17.53;101738.22;5078458;28;829;-40
2022/02/14 02:54:07;;;;;;;;;;;;;;;30.79;17.21;101730.38;5078760;28;762;-40
2022/02/14 02:56:36;;;;;;;;;;;;;;;30.80;17.43;101726.66;5078866;28;1969;-41
2022/02/14 02:59:01;;;;;;;;;;;;;;;30.85;17.31;101726.94;5076571;28;939;-40
2022/02/14 03:01:26;;;;;;;;;;;;;;;30.87;17.35;101727.63;5079071;28;777;-40
2022/02/14 03:03:53;;;;;;;;;;;;;;;30.93;17.18;101731.44;5078664;28;769;-40
2022/02/14 03:06:18;;;;;;;;;;;;;;;30.91;17.26;101734.34;5078487;28;797;-40
2022/02/14 03:08:44;;;;;;;;;;;;;;;30.96;17.18;101728.38;5079104;28;835;-40
2022/02/14 03:11:09;;;;;;;;;;;;;;;31.01;17.05;101733.25;5078685;28;896;-42
2022/02/14 03:13:34;;;;;;;;;;;;;;;31.02;17.16;101732.22;5078185;28;870;-42
2022/02/14 03:16:00;;;;;;;;;;;;;;;30.89;17.23;101732.84;5078454;28;1910;-41
2022/02/14 03:18:25;;;;;;;;;;;;;;;30.48;17.66;101725.91;5078600;28;877;-41
2022/02/14 03:20:50;;;;;;;;;;;;;;;30.47;17.72;101724.19;5078723;28;797;-40
2022/02/14 03:23:15;;;;;;;;;;;;;;;30.03;17.62;101640.53;5078518;28;833;-40
2022/02/14 03:25:41;;;;;;;;;;;;;;;30.43;17.70;101727.28;5078598;28;859;-39
2022/02/14 03:28:06;;;;;;;;;;;;;;;30.28;17.92;101734.53;5072910;28;891;-40
2022/02/14 03:30:31;;;;;;;;;;;;;;;30.28;17.90;101729.13;5078757;28;743;-39
2022/02/14 03:32:57;;;;;;;;;;;;;;;30.32;17.86;101727.72;5078248;28;1052;-40
2022/02/14 03:35:22;;;;;;;;;;;;;;;30.39;17.87;101728.69;5078248;28;1971;-41
2022/02/14 03:37:49;;;;;;;;;;;;;;;30.46;17.76;101727.94;5078178;28;777;-40
2022/02/14 03:40:14;;;;;;;;;;;;;;;30.43;17.78;101727.28;5077850;28;1055;-41
2022/02/14 03:42:40;;;;;;;;;;;;;;;30.48;17.77;101729.44;5078133;28;777;-40
2022/02/14 03:45:05;;;;;;;;;;;;;;;30.53;17.82;101729.75;5078223;28;849;-40
2022/02/14 03:47:30;;;;;;;;;;;;;;;30.61;17.81;101726.13;5078008;28;959;-41
2022/02/14 03:49:56;;;;;;;;;;;;;;;30.68;17.56;101724.34;5071698;28;750;-42
2022/02/14 03:52:21;;;;;;;;;;;;;;;30.74;17.60;101721.94;5077710;28;896;-42
2022/02/14 03:54:46;;;;;;;;;;;;;;;30.80;17.32;101718.50;5077207;28;1894;-42
2022/02/14 03:57:11;;;;;;;;;;;;;;;30.80;17.43;101718.50;5078056;28;804;-42
2022/02/14 03:59:38;;;;;;;;;;;;;;;30.91;17.33;101728.09;5076605;28;974;-42
2022/02/14 04:02:03;;;;;;;;;;;;;;;30.93;17.33;101720.56;5077641;28;966;-41
2022/02/14 04:04:28;;;;;;;;;;;;;;;30.90;17.20;101719.09;5078395;28;786;-42
2022/02/14 04:06:54;;;;;;;;;;;;;;;31.01;17.12;101725.09;5071386;28;873;-41
2022/02/14 04:09:19;;;;;;;;;;;;;;;30.99;17.30;101727.16;5077720;28;754;-41
2022/02/14 04:11:44;;;;;;;;;;;;;;;30.98;17.17;101730.91;5077863;28;891;-41
2022/02/14 04:14:10;;;;;;;;;;;;;;;30.97;17.23;101723.78;5071553;28;862;-42
2022/02/14 04:16:35;;;;;;;;;;;;;;;30.40;17.56;101724.09;5075668;28;1127;-40
2022/02/14 04:19:01;;;;;;;;;;;;;;;30.01;18.21;101715.84;5072466;28;1137;-39
2022/02/14 04:21:26;;;;;;;;;;;;;;;29.98;18.03;101712.66;5068688;28;1463;-42
2022/02/14 04:23:51;;;;;;;;;;;;;;;29.86;18.25;101715.78;5077406;28;789;-39
2022/02/14 04:26:16;;;;;;;;;;;;;;;29.65;18.59;101713.69;5077537;28;821;-40
2022/02/14 04:28:42;;;;;;;;;;;;;;;29.47;18.67;101703.91;5073196;28;1038;-43
2022/02/14 04:31:07;;;;;;;;;;;;;;;29.23;18.85;101702.97;5077298;28;1020;-42
2022/02/14 04:33:32;;;;;;;;;;;;;;;29.20;18.78;101701.47;5077167;28;1247;-42
2022/02/14 04:35:58;;;;;;;;;;;;;;;29.09;18.70;101701.84;5076712;28;1968;-40
2022/02/14 04:38:23;;;;;;;;;;;;;;;28.94;19.17;101705.25;5077286;28;841;-42
2022/02/14 04:40:48;;;;;;;;;;;;;;;28.89;19.43;101710.31;5077172;28;841;-42
2022/02/14 04:43:16;;;;;;;;;;;;;;;28.82;19.27;101712.88;5076605;28;861;-43
2022/02/14 04:45:41;;;;;;;;;;;;;;;28.26;19.79;101718.09;5074228;28;856;-40
2022/02/14 04:48:06;;;;;;;;;;;;;;;28.43;17.35;101711.69;5076857;28;935;-43
2022/02/14 04:50:32;;;;;;;;;;;;;;;27.91;17.05;101712.78;5076602;28;825;-42
2022/02/14 04:52:57;;;;;;;;;;;;;;;27.31;17.21;101712.69;5077067;28;849;-43
2022/02/14 04:55:22;;;;;;;;;;;;;;;27.64;16.77;101710.13;5076500;28;1969;-43
2022/02/14 04:57:48;;;;;;;;;;;;;;;27.64;16.68;101712.84;5069179;28;1341;-43
2022/02/14 05:00:14;;;;;;;;;;;;;;;26.90;17.12;101709.56;5068151;28;1215;-44
2022/02/14 05:02:39;;;;;;;;;;;;;;;26.98;17.22;101713.28;5075533;28;844;-42
2022/02/14 05:05:05;;;;;;;;;;;;;;;26.39;17.58;101722.81;5076778;28;834;-44
2022/02/14 05:07:30;;;;;;;;;;;;;;;26.00;17.82;101718.50;5076194;28;841;-43
2022/02/14 05:09:55;;;;;;;;;;;;;;;26.68;17.26;101721.69;5075897;28;852;-43
2022/02/14 05:12:20;;;;;;;;;;;;;;;26.40;17.25;101721.78;5076005;28;871;-42
2022/02/14 05:14:46;;;;;;;;;;;;;;;26.69;16.96;101720.72;5072156;28;1947;-42
2022/02/14 05:17:11;;;;;;;;;;;;;;;27.00;16.64;101722.09;5076576;28;828;-43
2022/02/14 05:19:36;;;;;;;;;;;;;;;27.17;16.66;101722.22;5075659;28;1155;-43
2022/02/14 05:22:02;;;;;;;;;;;;;;;26.43;16.64;101623.50;5069640;28;1032;-42
2022/02/14 05:24:27;;;;;;;;;;;;;;;26.82;16.75;101725.69;5071408;28;998;-43
2022/02/14 05:26:52;;;;;;;;;;;;;;;26.92;16.81;101731.00;5076468;28;797;-43
2022/02/14 05:29:18;;;;;;;;;;;;;;;27.03;16.71;101729.91;5073418;28;951;-43
2022/02/14 05:31:43;;;;;;;;;;;;;;;27.30;16.33;101735.28;5076309;28;1142;-42
2022/02/14 05:34:08;;;;;;;;;;;;;;;27.33;16.39;101737.66;5076273;28;896;-43
2022/02/14 05:36:34;;;;;;;;;;;;;;;27.01;16.50;101743.56;5075327;28;1910;-43
2022/02/14 05:38:59;;;;;;;;;;;;;;;27.08;16.37;101746.47;5076361;28;825;-42
2022/02/14 05:41:24;;;;;;;;;;;;;;;27.72;16.71;101747.19;5076510;28;901;-40
2022/02/14 05:43:50;;;;;;;;;;;;;;;28.30;17.15;101749.19;5074476;28;891;-40
2022/02/14 05:46:15;;;;;;;;;;;;;;;28.82;16.89;101750.78;5072703;28;1043;-40
2022/02/14 05:48:44;;;;;;;;;;;;;;;29.03;16.51;101751.31;5063669;28;1480;-40
2022/02/14 05:51:10;;;;;;;;;;;;;;;29.00;16.58;101752.47;5073948;28;1206;-41
2022/02/14 05:53:35;;;;;;;;;;;;;;;28.93;17.04;101746.88;5071356;28;1099;-41
2022/02/14 05:56:00;;;;;;;;;;;;;;;28.92;17.15;101755.16;5073831;28;1898;-41
2022/02/14 05:58:26;;;;;;;;;;;;;;;28.93;17.09;101759.56;5067428;28;1199;-41
2022/02/14 06:00:52;;;;;;;;;;;;;;;28.93;17.47;101755.00;5074170;28;1316;-41
2022/02/14 06:03:17;;;;;;;;;;;;;;;28.96;17.29;101751.94;5068607;28;1241;-40
2022/02/14 06:05:42;;;;;;;;;;;;;;;28.87;17.41;101752.97;5072058;28;1229;-41
2022/02/14 06:08:07;;;;;;;;;;;;;;;28.82;17.33;101758.06;5075649;28;1335;-41
2022/02/14 06:10:33;;;;;;;;;;;;;;;28.85;17.62;101758.56;5075187;28;1288;-41
2022/02/14 06:12:58;;;;;;;;;;;;;;;28.88;17.62;101757.38;5072167;28;1260;-41
2022/02/14 06:15:23;;;;;;;;;;;;;;;28.86;17.80;101756.72;5074837;28;1902;-42
2022/02/14 06:17:49;;;;;;;;;;;;;;;29.00;17.47;101760.59;5080040;28;800;-41
2022/02/14 06:20:15;;;;;;;;;;;;;;;29.14;17.38;101760.91;5079761;28;789;-41
2022/02/14 06:22:40;;;;;;;;;;;;;;;29.33;17.53;101765.09;5080026;28;869;-42
2022/02/14 06:25:06;;;;;;;;;;;;;;;29.30;17.46;101765.44;5079154;28;980;-41
2022/02/14 06:27:31;;;;;;;;;;;;;;;29.29;17.26;101771.91;5076865;28;1288;-41
2022/02/14 06:29:56;;;;;;;;;;;;;;;29.24;17.58;101767.00;5079699;28;821;-41
2022/02/14 06:32:21;;;;;;;;;;;;;;;29.34;17.48;101766.81;5078929;28;1255;-40
2022/02/14 06:34:47;;;;;;;;;;;;;;;29.16;17.66;101767.84;5077953;28;1910;-40
2022/02/14 06:37:12;;;;;;;;;;;;;;;29.22;17.72;101769.03;5078343;28;808;-41
2022/02/14 06:39:37;;;;;;;;;;;;;;;29.24;17.76;101771.56;5072619;28;1161;-41
2022/02/14 06:42:03;;;;;;;;;;;;;;;29.18;18.02;101767.66;5078386;28;837;-41
2022/02/14 06:44:28;;;;;;;;;;;;;;;29.24;18.11;101768.84;5075860;28;1428;-44
2022/02/14 06:46:54;;;;;;;;;;;;;;;29.12;18.47;101765.66;5081122;28;1226;-43
2022/02/14 06:49:19;;;;;;;;;;;;;;;28.90;18.63;101768.88;5078455;28;1399;-44
2022/02/14 06:51:45;;;;;;;;;;;;;;;29.05;19.01;101760.94;5080281;28;1597;-43
2022/02/14 06:54:10;;;;;;;;;;;;;;;28.86;19.13;101770.25;5076779;28;1575;-43
2022/02/14 06:56:35;;;;;;;;;;;;;;;28.53;19.27;101762.13;5079302;28;1890;-43
2022/02/14 06:59:01;;;;;;;;;;;;;;;28.74;19.78;101764.31;5070215;28;853;-47
2022/02/14 07:01:26;;;;;;;;;;;;;;;28.91;19.50;101765.13;5093761;28;1570;-45
2022/02/14 07:03:51;;;;;;;;;;;;;;;29.18;19.42;101762.25;5077169;28;1206;-46
2022/02/14 07:06:17;;;;;;;;;;;;;;;29.03;19.56;101762.13;5076758;28;1230;-44
2022/02/14 07:08:44;;;;;;;;;;;;;;;29.00;19.71;101757.91;5071814;28;1365;-45
2022/02/14 07:11:09;;;;;;;;;;;;;;;29.36;19.35;101763.91;5076388;28;853;-44
2022/02/14 07:13:34;;;;;;;;;;;;;;;29.08;19.75;101752.47;5074419;28;854;-46
2022/02/14 07:16:00;;;;;;;;;;;;;;;28.97;19.75;101752.81;5077195;28;1910;-44
2022/02/14 07:18:25;;;;;;;;;;;;;;;28.83;20.11;101754.31;5079183;28;1268;-44
2022/02/14 07:20:50;;;;;;;;;;;;;;;29.12;20.17;101749.41;5074323;28;1328;-45
2022/02/14 07:23:16;;;;;;;;;;;;;;;28.96;20.25;101749.22;5075277;28;1185;-43
2022/02/14 07:25:41;;;;;;;;;;;;;;;29.38;20.70;101751.88;5080333;28;1527;-44
2022/02/14 07:28:07;;;;;;;;;;;;;;;29.61;20.86;101753.88;5075353;28;1352;-44
2022/02/14 07:30:32;;;;;;;;;;;;;;;29.50;20.65;101752.34;5071448;28;1276;-46
2022/02/14 07:32:57;;;;;;;;;;;;;;;29.59;20.77;101753.19;5029903;28;1212873;-45
2022/02/14 07:35:23;;;;;;;;;;;;;;;29.19;19.88;101751.28;5084392;28;1906;-45
2022/02/14 07:37:48;;;;;;;;;;;;;;;28.91;19.72;101751.59;5083992;28;1475;-45
2022/02/14 07:40:14;;;;;;;;;;;;;;;28.72;19.92;101750.09;5081378;28;1431;-45
2022/02/14 07:42:39;;;;;;;;;;;;;;;28.69;20.05;101755.88;5075946;28;1082;-45
2022/02/14 07:45:05;;;;;;;;;;;;;;;28.84;19.75;101746.00;5077192;28;1595;-45
2022/02/14 07:47:30;;;;;;;;;;;;;;;28.84;19.88;101747.91;5080244;28;1238;-45
2022/02/14 07:49:55;;;;;;;;;;;;;;;28.80;19.97;101747.38;5078780;28;1329;-44
2022/02/14 07:52:21;;;;;;;;;;;;;;;28.91;19.77;101748.88;5077258;28;1251;-44
2022/02/14 07:54:46;;;;;;;;;;;;;;;28.89;19.85;101744.69;5078599;28;1898;-45
2022/02/14 07:57:11;;;;;;;;;;;;;;;28.81;20.38;101753.66;5075365;28;1226;-44
2022/02/14 07:59:37;;;;;;;;;;;;;;;28.87;19.96;101752.13;5073608;28;1384;-44
2022/02/14 08:02:02;;;;;;;;;;;;;;;28.83;20.19;101751.59;5072068;28;1155;-44
2022/02/14 08:04:28;;;;;;;;;;;;;;;28.90;20.64;101743.66;5077218;28;1542;-45
2022/02/14 08:06:53;;;;;;;;;;;;;;;28.82;20.77;101748.06;5077544;28;845;-44
2022/02/14 08:09:18;;;;;;;;;;;;;;;28.67;20.93;101750.63;5077083;28;907;-45
2022/02/14 08:11:44;;;;;;;;;;;;;;;28.80;20.86;101741.13;5076841;28;1357;-44
2022/02/14 08:14:09;;;;;;;;;;;;;;;28.84;20.60;101746.00;5074754;28;1559;-45
2022/02/14 08:16:35;;;;;;;;;;;;;;;28.82;20.67;101744.50;5077052;28;1897;-45
2022/02/14 08:19:01;;;;;;;;;;;;;;;29.02;19.96;101730.63;5077189;28;1431;-45
2022/02/14 08:21:26;;;;;;;;;;;;;;;29.04;19.84;101739.44;5069883;28;1488;-45
2022/02/14 08:23:52;;;;;;;;;;;;;;;29.12;19.90;101743.97;5072462;28;1487;-46
2022/02/14 08:26:17;;;;;;;;;;;;;;;29.29;19.63;101736.66;5074403;28;1234;-45
2022/02/14 08:28:42;;;;;;;;;;;;;;;29.14;19.77;101733.81;5068208;28;1594;-45
2022/02/14 08:31:07;;;;;;;;;;;;;;;29.32;19.57;101734.47;5072860;28;1337;-46
2022/02/14 08:33:33;;;;;;;;;;;;;;;29.28;19.51;101735.00;5074919;28;1242;-45
2022/02/14 08:35:58;;;;;;;;;;;;;;;29.24;19.57;101734.50;5072179;28;1985;-45
2022/02/14 08:38:23;;;;;;;;;;;;;;;29.19;19.44;101731.44;5075335;28;1298;-45
2022/02/14 08:40:49;;;;;;;;;;;;;;;29.32;19.57;101728.19;5074689;28;1338;-45
2022/02/14 08:43:14;;;;;;;;;;;;;;;29.41;19.04;101734.44;5071697;28;832;-45
2022/02/14 08:45:39;;;;;;;;;;;;;;;29.24;19.35;101730.91;5077152;28;811;-45
2022/02/14 08:48:05;;;;;;;;;;;;;;;29.28;19.52;101724.97;5074973;28;1459;-46
2022/02/14 08:50:30;;;;;;;;;;;;;;;29.37;20.03;101723.09;5076719;28;1363;-46
2022/02/14 08:53:03;;;;;;;;;;;;;;;29.25;20.43;101725.31;5075338;28;1289;-46
2022/02/14 08:55:28;;;;;;;;;;;;;;;29.39;20.30;101728.34;5076013;28;1953;-46
2022/02/14 08:57:54;;;;;;;;;;;;;;;29.37;20.78;101727.66;5073592;28;1521;-46
2022/02/14 09:00:19;;;;;;;;;;;;;;;29.05;21.36;101727.56;5075588;28;1337;-47
2022/02/14 09:02:44;;;;;;;;;;;;;;;29.11;20.72;101732.31;5073608;28;1215;-46
2022/02/14 09:05:10;;;;;;;;;;;;;;;29.37;20.41;101724.94;5072579;28;1414;-47
2022/02/14 09:07:35;;;;;;;;;;;;;;;29.43;20.64;101714.25;5070444;28;1384;-45
2022/02/14 09:10:00;;;;;;;;;;;;;;;28.59;18.82;101720.84;5070843;28;1709;-49
2022/02/14 09:12:26;;;;;;;;;;;;;;;26.46;18.18;101717.66;5069777;28;1443;-48
2022/02/14 09:14:51;;;;;;;;;;;;;;;25.18;19.51;101715.44;5074516;28;1894;-47
2022/02/14 09:17:17;;;;;;;;;;;;;;;25.69;19.88;101714.28;5075092;28;1300;-44
2022/02/14 09:19:42;;;;;;;;;;;;;;;27.36;19.62;101713.06;5073686;28;1274;-41
2022/02/14 09:22:08;;;;;;;;;;;;;;;27.79;19.90;101714.94;5076432;28;1387;-47
2022/02/14 09:24:33;;;;;;;;;;;;;;;27.84;20.44;101713.41;5075441;28;1368;-43
2022/02/14 09:26:58;;;;;;;;;;;;;;;27.86;20.61;101710.56;5076402;28;1377;-45
2022/02/14 09:29:24;;;;;;;;;;;;;;;27.98;20.29;101709.25;5078085;28;1649;-46
2022/02/14 09:31:49;;;;;;;;;;;;;;;28.02;21.15;101706.19;5079987;28;1257;-43
2022/02/14 09:34:14;;;;;;;;;;;;;;;27.87;20.26;101704.16;5073908;28;1607;-43
2022/02/14 09:36:40;;;;;;;;;;;;;;;27.81;20.73;101713.75;5071298;28;1974;-42
2022/02/14 09:39:05;;;;;;;;;;;;;;;27.90;20.75;101708.38;5068910;28;1258;-44
2022/02/14 09:41:31;;;;;;;;;;;;;;;28.43;20.54;101703.56;5074834;28;808;-43
2022/02/14 09:43:56;;;;;;;;;;;;;;;28.90;19.81;101711.16;5072185;28;1309;-44
2022/02/14 09:46:22;;;;;;;;;;;;;;;28.97;19.70;101712.19;5072617;28;1515;-43
2022/02/14 09:48:47;;;;;;;;;;;;;;;29.08;19.22;101705.56;5072840;28;1570;-43
2022/02/14 09:51:14;;;;;;;;;;;;;;;29.20;19.20;101704.19;5068899;28;1568;-43
2022/02/14 09:53:39;;;;;;;;;;;;;;;29.36;18.86;101696.16;5070152;28;1254;-43
2022/02/14 09:56:05;;;;;;;;;;;;;;;29.27;18.75;101704.31;5075776;28;1972;-43
2022/02/14 09:58:30;;;;;;;;;;;;;;;29.17;18.31;101699.09;5073377;28;903;-44
2022/02/14 10:00:55;;;;;;;;;;;;;;;29.15;18.24;101692.16;5073104;28;1253;-43
2022/02/14 10:03:23;;;;;;;;;;;;;;;29.16;17.90;101691.97;5073194;28;853;-44
2022/02/14 10:05:49;;;;;;;;;;;;;;;29.11;18.30;101685.41;5075074;28;1308;-43
2022/02/14 10:08:21;;;;;;;;;;;;;;;29.15;18.53;101686.75;5075244;28;1605;-42
2022/02/14 10:10:47;;;;;;;;;;;;;;;29.42;18.35;101680.06;5074392;28;1519;-43
2022/02/14 10:13:12;;;;;;;;;;;;;;;29.36;18.48;101685.31;5074670;28;1298;-43
2022/02/14 10:15:48;;;;;;;;;;;;;;;29.44;18.57;101678.00;5070621;28;1964;-44
2022/02/14 10:18:18;;;;;;;;;;;;;;;29.54;18.23;101677.78;5075131;28;801;-44
2022/02/14 10:20:43;;;;;;;;;;;;;;;28.76;19.46;101669.38;5069450;28;1358;-43
2022/02/14 10:23:09;;;;;;;;;;;;;;;28.58;19.56;101663.13;5074550;28;1349;-43
2022/02/14 10:25:37;;;;;;;;;;;;;;;28.53;20.02;101667.38;5076787;28;1420;-43
2022/02/14 10:28:12;;;;;;;;;;;;;;;28.92;20.10;101649.53;5073444;28;1372;-43
2022/02/14 10:30:59;;;;;;;;;;;;;;;29.14;20.19;101652.56;5077629;28;1272;-43
2022/02/14 10:33:24;;;;;;;;;;;;;;;29.46;20.22;101654.25;5074403;28;1372;-43
2022/02/14 10:35:49;;;;;;;;;;;;;;;29.52;20.37;101647.31;5075831;28;1921;-43
2022/02/14 10:38:15;;;;;;;;;;;;;;;29.64;20.41;101639.66;5073880;28;1365;-44
2022/02/14 10:40:40;;;;;;;;;;;;;;;28.99;20.55;101634.31;5067386;28;1320;-44
2022/02/14 10:43:07;;;;;;;;;;;;;;;28.74;21.20;101645.19;5070116;28;1365;-44
2022/02/14 10:45:34;;;;;;;;;;;;;;;28.44;21.87;101626.81;5073106;28;1172;-43
2022/02/14 10:48:01;;;;;;;;;;;;;;;28.26;21.82;101623.41;5077107;28;1300;-43
2022/02/14 10:50:27;;;;;;;;;;;;;;;28.16;21.78;101624.38;5074528;28;1285;-43
2022/02/14 10:52:53;;;;;;;;;;;;;;;28.17;21.46;101614.44;5076449;28;1443;-43
2022/02/14 10:55:20;;;;;;;;;;;;;;;28.08;21.50;101613.56;5070382;28;1981;-43
2022/02/14 10:57:46;;;;;;;;;;;;;;;28.01;21.82;101609.88;5072926;28;1036;-44
2022/02/14 11:00:18;;;;;;;;;;;;;;;28.08;22.07;101598.19;5077793;28;1526;-43
2022/02/14 11:02:45;;;;;;;;;;;;;;;28.18;22.75;101602.56;5075385;28;1452;-43
2022/02/14 11:05:10;;;;;;;;;;;;;;;28.24;22.86;101600.03;5078515;28;800;-43
2022/02/14 11:07:36;;;;;;;;;;;;;;;28.53;22.58;101594.31;5075579;28;1306;-44
2022/02/14 11:10:02;;;;;;;;;;;;;;;28.58;21.80;101597.31;5067452;28;1271;-44
2022/02/14 11:12:29;;;;;;;;;;;;;;;28.97;22.37;101598.44;5075402;28;1333;-44
2022/02/14 11:14:55;;;;;;;;;;;;;;;29.56;22.12;101596.28;5076801;28;1898;-44
2022/02/14 11:17:25;;;;;;;;;;;;;;;29.65;22.12;101587.09;5075789;28;1315;-44
2022/02/14 11:19:52;;;;;;;;;;;;;;;29.62;21.79;101594.75;5077491;28;1092;-44
2022/02/14 11:22:18;;;;;;;;;;;;;;;29.00;21.70;101595.38;5077320;28;1467;-44
2022/02/14 11:24:43;;;;;;;;;;;;;;;28.65;22.24;101590.22;5073547;28;1243;-44
2022/02/14 11:27:10;;;;;;;;;;;;;;;29.00;22.83;101592.66;5076662;28;1378;-44
2022/02/14 11:29:38;;;;;;;;;;;;;;;29.73;23.31;101597.03;5072629;28;1264;-43
2022/02/14 11:32:16;;;;;;;;;;;;;;;29.63;24.81;101588.31;5078039;28;1371;-40
2022/02/14 11:34:50;;;;;;;;;;;;;;;29.25;24.20;101581.72;5073384;28;1910;-44
2022/02/14 11:37:15;;;;;;;;;;;;;;;29.26;24.84;101582.56;5074706;28;1087;-44
2022/02/14 11:39:41;;;;;;;;;;;;;;;29.31;24.62;101585.59;5076632;28;1479;-44
2022/02/14 11:42:07;;;;;;;;;;;;;;;29.04;22.61;101585.88;5076245;28;1108;-43
2022/02/14 11:44:33;;;;;;;;;;;;;;;28.67;22.42;101584.63;5071415;28;1297;-44
2022/02/14 11:46:59;;;;;;;;;;;;;;;28.55;22.48;101579.56;5073343;28;1245;-43
2022/02/14 11:49:43;;;;;;;;;;;;;;;28.49;22.56;101572.16;5071967;28;1229;-44
2022/02/14 11:52:35;;;;;;;;;;;;;;;28.35;22.41;101576.41;5077303;28;1218;-44
2022/02/14 11:55:03;;;;;;;;;;;;;;;28.25;22.32;101573.84;5069063;28;1902;-44
2022/02/14 11:57:31;;;;;;;;;;;;;;;28.17;22.13;101579.25;5073715;28;1416;-44
2022/02/14 12:00:14;;;;;;;;;;;;;;;28.10;22.09;101568.28;5077527;28;1155;-44
2022/02/14 12:02:40;;;;;;;;;;;;;;;28.13;22.02;101578.75;5077216;28;1317;-44
2022/02/14 12:05:06;;;;;;;;;;;;;;;28.05;22.20;101582.31;5073175;28;1361;-44
2022/02/14 12:07:35;;;;;;;;;;;;;;;28.02;22.06;101582.66;5074557;28;1389;-44
2022/02/14 12:10:12;;;;;;;;;;;;;;;28.01;22.16;101580.13;5076201;28;1258;-44
2022/02/14 12:12:43;;;;;;;;;;;;;;;27.82;22.33;101574.03;5070376;28;1288;-44
2022/02/14 12:20:52;;;;;;;;;;;;;;;27.86;23.22;101580.78;5076140;28;1281;-44
2022/02/14 12:23:55;;;;;;;;;;;;;;;28.00;23.01;101573.84;5080428;28;1181;-44
2022/02/14 12:26:22;;;;;;;;;;;;;;;27.97;22.83;101574.19;4994505;28;1405;-44
2022/02/14 12:29:31;;;;;;;;;;;;;;;27.92;22.89;101576.56;5057140;28;1244;-44
2022/02/14 12:31:33;;;;;;;;;;;;;;;27.84;22.24;101572.00;5075944;28;1660;-43
2022/02/14 12:33:58;;;;;;;;;;;;;;;27.77;22.40;101565.56;5076414;28;1278;-43
2022/02/14 12:36:23;;;;;;;;;;;;;;;27.73;22.63;101571.31;5071579;28;1906;-35
2022/02/14 12:38:49;;;;;;;;;;;;;;;27.64;22.19;101577.69;5076262;28;1152;-36
2022/02/14 12:41:14;;;;;;;;;;;;;;;27.56;23.00;101567.69;5080452;28;1321;-36
2022/02/14 12:43:40;;;;;;;;;;;;;;;27.58;22.49;101572.94;5074131;28;1276;-35
2022/02/14 12:46:09;;;;;;;;;;;;;;;27.53;22.68;101569.91;5073328;28;1238;-35
2022/02/14 12:48:35;;;;;;;;;;;;;;;27.47;22.48;101571.41;5073374;28;1233;-36
2022/02/14 12:51:20;;;;;;;;;;;;;;;27.47;22.68;101566.84;5076591;28;1242;-36